Create Tblcommutelog Verified Points Advance Search
| # | Trip ID | Id Commuter | Trip Date | Trip Num | Current Lat | Current Lng | Delta Distance | Current Time | Activity | Activity Confidence | Current Speed | |
|---|---|---|---|---|---|---|---|---|---|---|---|---|
| 72561 | 250519_669170_16500693_0634 | 669170 | (not set) | (not set) | 39.084338601271 | -77.146105192358 | 50.5144 | 2025-05-19 11:58:15.231 | in_vehicle | 100 | 4.2871064936923 | |
| 72562 | 250519_780745_16421763_0748 | 780745 | (not set) | (not set) | 39.071249821013 | -77.549428534143 | 2.6392 | 2025-05-19 11:58:16.29 | in_vehicle | 100 | 0 | |
| 72563 | 250519_784389_6428266_0700 | 784389 | (not set) | (not set) | 38.895603630644 | -77.047456222475 | 34.793 | 2025-05-19 11:58:17.239 | in_vehicle | 100 | 1.0103087253123 | |
| 72564 | 250519_774046_16504560_0728 | 774046 | (not set) | (not set) | 38.944469131102 | -77.063512383255 | 13.605 | 2025-05-19 11:58:17.262 | in_vehicle | 100 | -0.44703925898772 | |
| 72565 | 250519_768061_16513794_0758 | 768061 | (not set) | (not set) | 39.177792 | -76.8274645 | 0 | 2025-05-19 11:58:17.693 | still | 100 | 3.8177152717552 | |
| 72566 | 250519_784917_16428364_0603 | 784917 | (not set) | (not set) | 39.098351092423 | -77.561945828783 | 50.4924 | 2025-05-19 11:58:18.479 | in_vehicle | 100 | 10.004738616145 | |
| 72567 | 250519_779784_16456978_0738 | 779784 | (not set) | (not set) | 39.232870316667 | -77.283869583333 | 9.0909 | 2025-05-19 11:58:19.204 | in_vehicle | 100 | 0 | |
| 72568 | 250519_784462_16454914_0757 | 784462 | (not set) | (not set) | 39.011467 | -76.9097215 | 0.0495 | 2025-05-19 11:58:20.774 | in_vehicle | 100 | 1.3589993473227 | |
| 72569 | 250519_775339_16505279_0729 | 775339 | (not set) | (not set) | 38.879201877898 | -77.135832030398 | 19.823 | 2025-05-19 11:58:23.168 | in_vehicle | 100 | 11.390560319007 | |
| 72570 | 250519_776453_16513328_0754 | 776453 | (not set) | (not set) | 39.037837112225 | -77.142538074821 | 1.4232 | 2025-05-19 11:58:26.259 | in_vehicle | 100 | 6.7815855588438 | |
| 72571 | 250519_776186_16511869_0653 | 776186 | (not set) | (not set) | 38.933835323619 | -77.072429797873 | 12.6955 | 2025-05-19 11:58:26.438 | in_vehicle | 100 | 2.6330612354377 | |
| 72572 | 250519_783934_16480104_0730 | 783934 | (not set) | (not set) | 38.771847439908 | -77.182447903329 | 16.5059 | 2025-05-19 11:58:27.009 | in_vehicle | 100 | 13.804572317541 | |
| 72573 | 250519_779784_16456978_0738 | 779784 | (not set) | (not set) | 39.232500766667 | -77.284281683333 | 9.1246 | 2025-05-19 11:58:27.523 | in_vehicle | 100 | 5.2214185449766 | |
| 72574 | 250519_758537_16503613_0745 | 758537 | (not set) | (not set) | 38.923430864744 | -77.050990916053 | 0.6029 | 2025-05-19 11:58:28.365 | on_foot | 100 | 0.35763140719018 | |
| 72575 | 250519_784917_16428364_0603 | 784917 | (not set) | (not set) | 39.09883537516 | -77.559113827776 | 50.6483 | 2025-05-19 11:58:30.316 | in_vehicle | 100 | 9.3833540461523 | |
| 72576 | 250519_774046_16504560_0728 | 774046 | (not set) | (not set) | 38.943931075513 | -77.063210491904 | 13.605 | 2025-05-19 11:58:31.76 | still | 100 | -0.44703925898772 | |
| 72577 | 250519_780810_6461772_0738 | 780810 | (not set) | (not set) | 38.997052725273 | -77.093976954509 | 3.5844 | 2025-05-19 11:58:33.308 | on_bicycle | 100 | 2.7269394798251 | |
| 72578 | 250519_780682_16421763_0747 | 780682 | (not set) | (not set) | 38.920100795962 | -77.032155093921 | 0.5696 | 2025-05-19 11:58:33.502 | on_foot | 100 | 0.69291085143097 | |
| 72579 | 250519_767277_16652205_0757 | 767277 | (not set) | (not set) | 39.014637323315 | -77.099732080692 | 1.0801 | 2025-05-19 11:58:34.214 | in_vehicle | 100 | 12.982020081004 | |
| 72580 | 250519_785147_16514010_0647 | 785147 | (not set) | (not set) | 39.065842491812 | -77.470160910898 | 44.5683 | 2025-05-19 11:58:34.303 | in_vehicle | 100 | 10.800468497143 |